createdAt,value
2018-11-29T00:02:11.683Z,101069.35
2018-11-29T00:04:41.301Z,101078.19
2018-11-29T00:07:10.900Z,101071.41
2018-11-29T00:09:40.692Z,101076.25
2018-11-29T00:12:10.281Z,101073.39
2018-11-29T00:14:39.897Z,101073.17
2018-11-29T00:17:09.533Z,101063.91
2018-11-29T00:19:39.201Z,101066.52
2018-11-29T00:22:08.932Z,101070.98
2018-11-29T00:24:38.545Z,101072.84
2018-11-29T00:27:08.229Z,101063.58
2018-11-29T00:29:37.936Z,101063.83
2018-11-29T00:32:07.556Z,101058.53
2018-11-29T00:34:37.183Z,101059.70
2018-11-29T00:37:07.402Z,101048.62
2018-11-29T00:39:36.754Z,101048.75
2018-11-29T00:42:06.464Z,101054.02
2018-11-29T00:44:36.057Z,101055.53
2018-11-29T00:47:08.864Z,101055.62
2018-11-29T00:49:38.421Z,101053.38
2018-11-29T00:52:08.094Z,101059.41
2018-11-29T00:54:37.681Z,101050.73
2018-11-29T00:57:07.615Z,101056.36
2018-11-29T00:59:37.299Z,101056.27
2018-11-29T01:02:07.018Z,101066.28
2018-11-29T01:04:36.572Z,101073.85
2018-11-29T01:07:06.375Z,101072.59
2018-11-29T01:09:36.003Z,101071.36
2018-11-29T01:12:06.213Z,101065.42
2018-11-29T01:14:35.821Z,101065.27
2018-11-29T01:17:05.469Z,101055.72
2018-11-29T01:19:35.102Z,101059.42
2018-11-29T01:22:04.842Z,101054.83
2018-11-29T01:24:34.493Z,101067.23
2018-11-29T01:27:04.200Z,101063.23
2018-11-29T01:29:33.797Z,101055.45
2018-11-29T01:32:03.354Z,101052.50
2018-11-29T01:34:33.038Z,101053.39
2018-11-29T01:37:02.655Z,101053.87
2018-11-29T01:39:32.193Z,101049.30
2018-11-29T01:42:02.092Z,101046.64
2018-11-29T01:44:31.695Z,101043.72
2018-11-29T01:47:01.296Z,101039.59
2018-11-29T01:49:30.816Z,101047.69
2018-11-29T01:52:00.434Z,101047.84
2018-11-29T01:54:29.976Z,101046.70
2018-11-29T01:56:59.545Z,101044.19
2018-11-29T01:59:29.195Z,101043.05
2018-11-29T02:01:58.875Z,101035.53
2018-11-29T02:04:29.595Z,101026.39
2018-11-29T02:06:59.119Z,101025.43
2018-11-29T02:09:28.656Z,101021.15
2018-11-29T02:11:58.294Z,101014.38
2018-11-29T02:14:27.931Z,101014.03
2018-11-29T02:16:57.503Z,101017.15
2018-11-29T02:19:27.135Z,101016.94
2018-11-29T02:21:56.852Z,101011.46
2018-11-29T02:24:26.395Z,101004.60
2018-11-29T02:26:56.062Z,101005.83
2018-11-29T02:29:25.601Z,100998.17
2018-11-29T02:31:55.203Z,100998.66
2018-11-29T02:34:25.435Z,100995.77
2018-11-29T02:36:55.003Z,100993.83
2018-11-29T02:39:24.560Z,100988.14
2018-11-29T02:41:54.212Z,101002.66
2018-11-29T02:44:23.811Z,101000.39
2018-11-29T02:46:53.508Z,100992.95
2018-11-29T02:49:23.231Z,100992.27
2018-11-29T02:51:53.104Z,100994.66
2018-11-29T02:54:22.675Z,100987.69
2018-11-29T02:56:52.802Z,100997.78
2018-11-29T02:59:22.382Z,100991.12
2018-11-29T03:01:51.952Z,100991.22
2018-11-29T03:04:21.573Z,100984.40
2018-11-29T03:06:51.133Z,100988.48
2018-11-29T03:09:20.789Z,100983.77
2018-11-29T03:11:50.404Z,100989.53
2018-11-29T03:14:19.984Z,100992.52
2018-11-29T03:16:49.702Z,100984.52
2018-11-29T03:19:19.338Z,100982.13
2018-11-29T03:21:48.902Z,100979.27
2018-11-29T03:24:18.448Z,100974.86
2018-11-29T03:26:48.131Z,100977.20
2018-11-29T03:29:17.743Z,100974.00
2018-11-29T03:31:47.305Z,100978.34
2018-11-29T03:34:16.943Z,100971.57
2018-11-29T03:36:46.496Z,100981.16
2018-11-29T03:39:16.160Z,100978.85
2018-11-29T03:41:45.792Z,100979.27
2018-11-29T03:44:15.358Z,100968.87
2018-11-29T03:46:44.919Z,100969.67
2018-11-29T03:49:14.483Z,100977.23
2018-11-29T03:51:44.099Z,100970.55
2018-11-29T03:54:13.724Z,100964.38
2018-11-29T03:56:43.399Z,100957.85
2018-11-29T03:59:12.973Z,100948.77
2018-11-29T04:01:42.540Z,100954.83
2018-11-29T04:04:12.220Z,100953.11
2018-11-29T04:06:41.818Z,100948.06
2018-11-29T04:09:11.965Z,100942.37
2018-11-29T04:11:41.648Z,100945.33
2018-11-29T04:14:11.256Z,100950.12
2018-11-29T04:16:40.843Z,100944.16
2018-11-29T04:19:10.483Z,100956.05
2018-11-29T04:21:40.056Z,100960.42
2018-11-29T04:24:09.646Z,100957.28
2018-11-29T04:26:39.374Z,100954.54
2018-11-29T04:29:08.991Z,100956.77
2018-11-29T04:31:38.566Z,100952.31
2018-11-29T04:34:08.272Z,100945.75
2018-11-29T04:36:37.842Z,100945.41
2018-11-29T04:39:08.864Z,100948.31
2018-11-29T04:41:38.424Z,100952.94
2018-11-29T04:44:07.985Z,100956.72
2018-11-29T04:46:44.673Z,100957.52
2018-11-29T04:49:14.473Z,100956.38
2018-11-29T04:51:44.140Z,100964.69
2018-11-29T04:54:13.792Z,100965.48
2018-11-29T04:56:43.391Z,100962.17
2018-11-29T04:59:13.018Z,100968.02
2018-11-29T05:01:42.671Z,100968.51
2018-11-29T05:04:12.325Z,100970.11
2018-11-29T05:06:41.856Z,100967.28
2018-11-29T05:09:11.582Z,100959.95
2018-11-29T05:11:41.293Z,100966.17
2018-11-29T05:14:13.964Z,100969.98
2018-11-29T05:16:43.680Z,100970.81
2018-11-29T05:19:13.339Z,100977.95
2018-11-29T05:21:43.053Z,100990.13
2018-11-29T05:24:12.698Z,100990.36
2018-11-29T05:26:42.294Z,100979.14
2018-11-29T05:29:12.011Z,100982.00
2018-11-29T05:31:41.562Z,100976.62
2018-11-29T05:34:11.329Z,100979.63
2018-11-29T05:36:40.891Z,100976.86
2018-11-29T05:39:13.601Z,100979.89
2018-11-29T05:41:43.321Z,100977.38
2018-11-29T05:44:13.415Z,100980.11
2018-11-29T05:46:43.132Z,100981.27
2018-11-29T05:49:12.763Z,100979.70
2018-11-29T05:51:42.365Z,100976.84
2018-11-29T05:54:12.061Z,100970.72
2018-11-29T05:56:41.671Z,100961.34
2018-11-29T05:59:11.315Z,100962.02
2018-11-29T06:01:43.332Z,100950.95
2018-11-29T06:04:13.203Z,100947.77
2018-11-29T06:10:20.862Z,100935.83
2018-11-29T06:12:50.569Z,100942.90
2018-11-29T06:15:20.175Z,100923.66
2018-11-29T06:17:49.992Z,100927.17
2018-11-29T06:20:20.632Z,100926.41
2018-11-29T06:22:50.321Z,100927.33
2018-11-29T06:25:19.964Z,100922.13
2018-11-29T06:27:49.632Z,100917.09
2018-11-29T06:30:22.083Z,100915.13
2018-11-29T06:32:52.923Z,100917.64
2018-11-29T06:35:22.544Z,100922.68
2018-11-29T06:37:52.152Z,100923.55
2018-11-29T06:40:21.858Z,100925.30
2018-11-29T06:42:51.573Z,100927.94
2018-11-29T06:45:22.292Z,100925.64
2018-11-29T06:47:53.089Z,100928.34
2018-11-29T06:50:22.913Z,100926.97
2018-11-29T06:52:53.378Z,100927.86
2018-11-29T06:55:24.627Z,100915.10
2018-11-29T06:57:54.898Z,100905.70
2018-11-29T07:00:29.267Z,100909.57
2018-11-29T07:02:58.905Z,100923.00
2018-11-29T07:05:28.669Z,100927.23
2018-11-29T07:07:58.429Z,100920.09
2018-11-29T07:10:32.014Z,100927.20
2018-11-29T07:13:02.384Z,100924.52
2018-11-29T07:15:32.141Z,100925.31
2018-11-29T07:18:02.456Z,100922.81
2018-11-29T07:20:32.064Z,100916.11
2018-11-29T07:23:01.944Z,100913.36
2018-11-29T07:25:31.861Z,100904.77
2018-11-29T07:28:02.092Z,100900.56
2018-11-29T07:30:31.790Z,100913.65
2018-11-29T07:33:01.693Z,100909.34
2018-11-29T07:35:31.316Z,100919.67
2018-11-29T07:38:01.144Z,100923.54
2018-11-29T07:40:30.830Z,100930.12
2018-11-29T07:43:00.459Z,100932.05
2018-11-29T07:45:30.233Z,100931.87
2018-11-29T07:48:00.248Z,100929.73
2018-11-29T07:50:30.091Z,100925.53
2018-11-29T07:53:00.187Z,100925.95
2018-11-29T07:55:29.988Z,100926.67
2018-11-29T07:58:01.387Z,100923.02
2018-11-29T08:00:30.975Z,100916.24
2018-11-29T08:03:01.039Z,100919.91
2018-11-29T08:05:30.741Z,100923.97
2018-11-29T08:08:00.702Z,100920.69
2018-11-29T08:10:31.033Z,100924.02
2018-11-29T08:13:00.615Z,100923.02
2018-11-29T08:15:30.326Z,100926.55
2018-11-29T08:17:59.971Z,100926.90
2018-11-29T08:20:29.547Z,100926.95
2018-11-29T08:22:59.235Z,100930.80
2018-11-29T08:25:28.805Z,100924.97
2018-11-29T08:27:58.452Z,100926.97
2018-11-29T08:30:28.048Z,100925.81
2018-11-29T08:32:57.772Z,100920.14
2018-11-29T08:35:27.883Z,100925.40
2018-11-29T08:37:57.480Z,100929.22
2018-11-29T08:40:27.183Z,100920.63
2018-11-29T08:42:56.771Z,100917.84
2018-11-29T08:45:26.400Z,100912.45
2018-11-29T08:47:56.007Z,100920.73
2018-11-29T08:50:25.724Z,100922.95
2018-11-29T08:52:55.422Z,100903.66
2018-11-29T08:55:25.027Z,100915.39
2018-11-29T08:57:54.654Z,100912.45
2018-11-29T09:00:25.245Z,100904.19
2018-11-29T09:02:54.888Z,100897.45
2018-11-29T09:05:25.635Z,100896.00
2018-11-29T09:07:55.318Z,100898.81
2018-11-29T09:10:31.334Z,100890.43
2018-11-29T09:12:54.931Z,100885.63
2018-11-29T09:15:24.641Z,100886.48
2018-11-29T09:17:54.352Z,100891.56
2018-11-29T09:20:25.495Z,100870.97
2018-11-29T09:22:55.201Z,100877.45
2018-11-29T09:25:24.800Z,100881.25
2018-11-29T09:27:54.384Z,100878.24
2018-11-29T09:30:24.849Z,100871.82
2018-11-29T09:32:55.355Z,100864.53
2018-11-29T09:35:25.071Z,100859.64
2018-11-29T09:37:57.636Z,100848.64
2018-11-29T09:40:28.180Z,100849.44
2018-11-29T09:42:57.779Z,100841.36
2018-11-29T09:45:27.426Z,100831.50
2018-11-29T09:47:57.599Z,100832.64
2018-11-29T09:50:27.815Z,100836.05
2018-11-29T09:52:57.522Z,100824.08
2018-11-29T09:55:27.066Z,100818.28
2018-11-29T09:57:56.617Z,100806.59
2018-11-29T10:00:28.993Z,100818.84
2018-11-29T10:03:11.622Z,100827.56
2018-11-29T10:05:46.594Z,100819.61
2018-11-29T10:08:17.949Z,100821.65
2018-11-29T10:10:47.598Z,100825.50
2018-11-29T10:13:17.214Z,100818.35
2018-11-29T10:15:46.931Z,100809.52
2018-11-29T10:18:16.722Z,100799.52
2018-11-29T10:20:46.439Z,100800.79
2018-11-29T10:23:16.351Z,100796.23
2018-11-29T10:25:45.943Z,100780.78
2018-11-29T10:28:17.084Z,100790.96
2018-11-29T10:30:58.981Z,100785.50
2018-11-29T10:33:28.546Z,100785.45
2018-11-29T10:36:04.190Z,100781.05
2018-11-29T10:38:33.842Z,100773.98
2018-11-29T10:41:03.453Z,100776.93
2018-11-29T10:43:33.062Z,100772.96
2018-11-29T10:46:05.612Z,100786.39
2018-11-29T10:48:35.456Z,100780.95
2018-11-29T10:51:05.463Z,100775.86
2018-11-29T10:53:37.679Z,100771.66
2018-11-29T10:56:04.850Z,100768.03
2018-11-29T10:58:35.356Z,100777.29
2018-11-29T11:01:09.313Z,100764.98
2018-11-29T11:03:39.943Z,100754.31
2018-11-29T11:06:09.546Z,100744.52
2018-11-29T11:08:39.166Z,100738.37
2018-11-29T11:11:09.078Z,100732.23
2018-11-29T11:13:39.275Z,100724.28
2018-11-29T11:16:09.926Z,100730.06
2018-11-29T11:18:42.755Z,100724.59
2018-11-29T11:21:12.341Z,100732.06
2018-11-29T11:23:41.994Z,100713.52
2018-11-29T11:26:11.533Z,100719.84
2018-11-29T11:28:41.154Z,100716.41
2018-11-29T11:31:10.723Z,100719.50
2018-11-29T11:33:40.324Z,100731.86
2018-11-29T11:36:13.045Z,100726.05
2018-11-29T11:38:42.628Z,100723.99
2018-11-29T11:41:12.285Z,100717.42
2018-11-29T11:43:42.114Z,100724.16
2018-11-29T11:46:11.818Z,100720.72
2018-11-29T11:48:41.549Z,100720.03
2018-11-29T11:51:11.263Z,100709.12
2018-11-29T11:53:40.871Z,100716.70
2018-11-29T11:56:13.437Z,100713.91
2018-11-29T11:58:43.046Z,100701.93
2018-11-29T12:01:12.640Z,100707.59
2018-11-29T12:03:42.825Z,100699.27
2018-11-29T12:06:12.468Z,100694.02
2018-11-29T12:08:45.152Z,100677.81
2018-11-29T12:11:14.790Z,100672.19
2018-11-29T12:13:44.374Z,100675.13
2018-11-29T12:16:14.144Z,100669.20
2018-11-29T12:18:43.671Z,100673.23
2018-11-29T12:21:13.253Z,100671.95
2018-11-29T12:23:42.867Z,100671.95
2018-11-29T12:26:12.474Z,100674.00
2018-11-29T12:28:42.100Z,100669.75
2018-11-29T12:31:11.674Z,100668.47
2018-11-29T12:33:41.170Z,100660.03
2018-11-29T12:36:10.786Z,100665.77
2018-11-29T12:38:40.417Z,100669.36
2018-11-29T12:41:10.129Z,100666.22
2018-11-29T12:43:39.839Z,100664.16
2018-11-29T12:46:09.542Z,100663.95
2018-11-29T12:48:39.050Z,100648.77
2018-11-29T12:51:08.620Z,100657.79
2018-11-29T12:53:38.183Z,100651.67
2018-11-29T12:56:08.980Z,100650.50
2018-11-29T12:58:38.588Z,100652.70
2018-11-29T13:01:08.181Z,100642.02
2018-11-29T13:03:37.803Z,100633.97
2018-11-29T13:06:08.002Z,100641.47
2018-11-29T13:08:37.529Z,100637.98
2018-11-29T13:11:10.678Z,100616.74
2018-11-29T13:13:36.842Z,100634.00
2018-11-29T13:16:06.789Z,100633.02
2018-11-29T13:18:36.379Z,100634.28
2018-11-29T13:21:05.966Z,100631.34
2018-11-29T13:23:35.523Z,100639.53
2018-11-29T13:26:05.179Z,100638.36
2018-11-29T13:28:34.810Z,100634.00
2018-11-29T13:31:04.396Z,100631.20
2018-11-29T13:33:33.994Z,100631.25
2018-11-29T13:36:03.632Z,100629.65
2018-11-29T13:38:33.192Z,100630.77
2018-11-29T13:41:03.063Z,100622.59
2018-11-29T13:43:32.692Z,100621.89
2018-11-29T13:46:02.268Z,100617.93
2018-11-29T13:48:31.822Z,100627.89
2018-11-29T13:51:01.502Z,100623.30
2018-11-29T13:53:31.176Z,100622.87
2018-11-29T13:56:00.783Z,100631.42
2018-11-29T13:58:30.336Z,100625.86
2018-11-29T14:00:59.962Z,100632.38
2018-11-29T14:03:29.593Z,100636.61
2018-11-29T14:05:59.172Z,100627.47
2018-11-29T14:08:28.875Z,100628.59
2018-11-29T14:10:58.538Z,100630.08
2018-11-29T14:13:28.089Z,100630.35
2018-11-29T14:15:57.776Z,100617.10
2018-11-29T14:18:27.316Z,100626.27
2018-11-29T14:20:57.012Z,100625.05
2018-11-29T14:23:26.816Z,100624.54
2018-11-29T14:25:56.423Z,100615.30
2018-11-29T14:28:25.955Z,100617.36
2018-11-29T14:30:55.536Z,100617.20
2018-11-29T14:33:25.198Z,100604.32
2018-11-29T14:35:54.948Z,100613.58
2018-11-29T14:38:24.559Z,100599.77
2018-11-29T14:40:54.127Z,100611.21
2018-11-29T14:43:23.778Z,100598.50
2018-11-29T14:45:53.341Z,100599.77
2018-11-29T14:48:23.381Z,100583.06
2018-11-29T14:50:53.052Z,100605.23
2018-11-29T14:53:22.624Z,100602.30
2018-11-29T14:55:52.409Z,100599.22
2018-11-29T14:58:22.111Z,100598.48
2018-11-29T15:00:51.906Z,100603.20
2018-11-29T15:03:23.349Z,100598.84
2018-11-29T15:05:53.038Z,100595.38
2018-11-29T15:08:22.670Z,100592.28
2018-11-29T15:10:52.393Z,100595.53
2018-11-29T15:13:22.104Z,100584.84
2018-11-29T15:15:51.945Z,100574.14
2018-11-29T15:18:21.787Z,100574.31
2018-11-29T15:20:51.534Z,100574.47
2018-11-29T15:23:21.825Z,100577.55
2018-11-29T15:25:51.562Z,100582.43
2018-11-29T15:28:21.388Z,100576.45
2018-11-29T15:30:51.084Z,100568.28
2018-11-29T15:33:20.943Z,100567.90
2018-11-29T15:35:50.823Z,100555.20
2018-11-29T15:38:20.618Z,100566.61
2018-11-29T15:40:50.374Z,100565.50
2018-11-29T15:43:20.066Z,100569.66
2018-11-29T15:45:49.852Z,100578.52
2018-11-29T15:48:19.516Z,100578.16
2018-11-29T15:50:49.158Z,100582.33
2018-11-29T15:53:19.260Z,100571.28
2018-11-29T15:55:48.883Z,100564.88
2018-11-29T15:58:18.589Z,100563.59
2018-11-29T16:00:48.226Z,100554.34
2018-11-29T16:03:18.116Z,100550.32
2018-11-29T16:05:48.638Z,100547.94
2018-11-29T16:08:18.169Z,100543.95
2018-11-29T16:10:47.959Z,100549.55
2018-11-29T16:13:17.743Z,100538.64
2018-11-29T16:15:47.368Z,100541.58
2018-11-29T16:18:17.282Z,100548.25
2018-11-29T16:20:47.446Z,100557.64
2018-11-29T16:23:17.306Z,100550.02
2018-11-29T16:25:47.021Z,100539.69
2018-11-29T16:28:16.902Z,100547.82
2018-11-29T16:30:49.621Z,100542.41
2018-11-29T16:33:30.203Z,100535.84
2018-11-29T16:36:00.163Z,100535.13
2018-11-29T16:38:29.793Z,100531.81
2018-11-29T16:40:59.498Z,100529.48
2018-11-29T16:43:29.308Z,100534.02
2018-11-29T16:45:59.015Z,100544.33
2018-11-29T16:48:28.646Z,100544.48
2018-11-29T16:50:58.643Z,100539.98
2018-11-29T16:53:28.352Z,100535.94
2018-11-29T16:55:58.060Z,100527.25
2018-11-29T16:58:30.016Z,100532.70
2018-11-29T17:00:59.667Z,100539.73
2018-11-29T17:03:29.326Z,100536.30
2018-11-29T17:05:59.023Z,100523.80
2018-11-29T17:08:28.966Z,100520.54
2018-11-29T17:10:58.758Z,100519.30
2018-11-29T17:13:28.593Z,100521.59
2018-11-29T17:15:58.348Z,100517.04
2018-11-29T17:18:28.090Z,100514.67
2018-11-29T17:20:57.905Z,100508.84
2018-11-29T17:23:27.711Z,100520.09
2018-11-29T17:25:57.507Z,100519.78
2018-11-29T17:28:27.443Z,100517.31
2018-11-29T17:30:57.254Z,100517.66
2018-11-29T17:33:27.262Z,100508.80
2018-11-29T17:35:57.066Z,100513.52
2018-11-29T17:38:26.736Z,100518.16
2018-11-29T17:40:56.428Z,100515.79
2018-11-29T17:43:26.016Z,100508.53
2018-11-29T17:45:55.777Z,100508.73
2018-11-29T17:48:25.407Z,100512.09
2018-11-29T17:50:55.073Z,100513.36
2018-11-29T17:53:24.890Z,100516.95
2018-11-29T17:55:54.768Z,100522.58
2018-11-29T17:58:24.565Z,100517.45
2018-11-29T18:00:54.327Z,100518.21
2018-11-29T18:03:24.366Z,100517.48
2018-11-29T18:05:54.076Z,100505.17
2018-11-29T18:08:24.091Z,100505.49
2018-11-29T18:10:57.411Z,100509.07
2018-11-29T18:13:31.671Z,100503.28
2018-11-29T18:16:01.499Z,100502.14
2018-11-29T18:18:31.591Z,100497.14
2018-11-29T18:21:01.431Z,100481.00
2018-11-29T18:23:31.459Z,100485.72
2018-11-29T18:26:01.201Z,100483.38
2018-11-29T18:28:31.020Z,100491.45
2018-11-29T18:31:01.851Z,100483.00
2018-11-29T18:33:31.703Z,100479.01
2018-11-29T18:36:01.456Z,100475.53
2018-11-29T18:38:31.338Z,100477.55
2018-11-29T18:41:01.796Z,100463.98
2018-11-29T18:43:31.550Z,100462.01
2018-11-29T18:46:05.462Z,100458.89
2018-11-29T18:48:35.350Z,100453.25
2018-11-29T18:51:06.020Z,100455.41
2018-11-29T18:53:36.620Z,100450.28
2018-11-29T18:56:10.601Z,100445.09
2018-11-29T18:58:41.505Z,100448.57
2018-11-29T19:01:14.305Z,100438.92
2018-11-29T19:03:45.145Z,100435.53
2018-11-29T19:06:18.152Z,100429.72
2018-11-29T19:08:55.692Z,100432.63
2018-11-29T19:11:28.457Z,100429.50
2018-11-29T19:13:58.847Z,100416.70
2018-11-29T19:16:33.222Z,100423.06
2018-11-29T19:19:03.163Z,100419.18
2018-11-29T19:21:33.570Z,100425.11
2018-11-29T19:24:03.569Z,100416.44
2018-11-29T19:26:34.502Z,100420.70
2018-11-29T19:29:07.475Z,100423.92
2018-11-29T19:31:37.251Z,100422.88
2018-11-29T19:34:07.713Z,100426.45
2018-11-29T19:36:39.290Z,100435.47
2018-11-29T19:39:10.003Z,100431.25
2018-11-29T19:41:40.123Z,100426.16
2018-11-29T19:44:11.476Z,100425.64
2018-11-29T19:46:41.202Z,100433.08
2018-11-29T19:49:11.210Z,100425.97
2018-11-29T19:51:41.165Z,100414.26
2018-11-29T19:54:14.647Z,100415.97
2018-11-29T19:56:45.951Z,100404.51
2018-11-29T19:59:15.853Z,100407.98
2018-11-29T20:01:46.487Z,100405.61
2018-11-29T20:04:17.008Z,100418.48
2018-11-29T20:06:47.726Z,100412.31
2018-11-29T20:09:17.596Z,100414.47
2018-11-29T20:11:51.823Z,100412.45
2018-11-29T20:14:21.797Z,100412.11
2018-11-29T20:16:56.420Z,100421.66
2018-11-29T20:19:27.753Z,100424.13
2018-11-29T20:21:57.707Z,100418.53
2018-11-29T20:24:28.285Z,100416.37
2018-11-29T20:27:01.181Z,100422.70
2018-11-29T20:29:31.198Z,100407.66
2018-11-29T20:32:03.227Z,100411.26
2018-11-29T20:34:34.127Z,100410.91
2018-11-29T20:37:04.852Z,100398.23
2018-11-29T20:39:35.560Z,100397.20
2018-11-29T20:42:06.310Z,100400.41
2018-11-29T20:44:36.810Z,100395.03
2018-11-29T20:47:10.762Z,100394.17
2018-11-29T20:49:40.421Z,100394.65
2018-11-29T20:52:10.139Z,100390.16
2018-11-29T20:54:39.835Z,100399.87
2018-11-29T20:57:09.344Z,100391.93
2018-11-29T20:59:42.092Z,100400.41
2018-11-29T21:02:11.746Z,100396.02
2018-11-29T21:04:41.332Z,100395.32
2018-11-29T21:07:11.051Z,100398.20
2018-11-29T21:09:40.728Z,100397.34
2018-11-29T21:12:10.460Z,100390.58
2018-11-29T21:14:40.178Z,100379.09
2018-11-29T21:17:09.848Z,100377.05
2018-11-29T21:19:39.488Z,100368.56
2018-11-29T21:22:09.187Z,100370.50
2018-11-29T21:24:39.752Z,100369.84
2018-11-29T21:27:09.941Z,100365.06
2018-11-29T21:29:39.951Z,100356.94
2018-11-29T21:32:10.066Z,100358.90
2018-11-29T21:34:39.842Z,100354.72
2018-11-29T21:37:09.426Z,100354.94
2018-11-29T21:43:57.543Z,100355.23
2018-11-29T21:46:27.569Z,100348.62
2018-11-29T21:48:57.270Z,100351.30
2018-11-29T21:51:27.283Z,100340.70
2018-11-29T21:53:57.192Z,100347.41
2018-11-29T21:56:26.945Z,100341.57
2018-11-29T21:58:56.802Z,100339.02
2018-11-29T22:01:26.977Z,100347.48
2018-11-29T22:03:57.057Z,100345.69
2018-11-29T22:06:27.063Z,100339.30
2018-11-29T22:08:56.878Z,100337.98
2018-11-29T22:11:27.312Z,100340.70
2018-11-29T22:13:57.528Z,100342.50
2018-11-29T22:16:27.324Z,100338.10
2018-11-29T22:18:57.159Z,100341.36
2018-11-29T22:21:26.956Z,100338.20
2018-11-29T22:23:56.947Z,100336.23
2018-11-29T22:26:27.092Z,100336.94
2018-11-29T22:28:56.831Z,100333.71
2018-11-29T22:31:26.599Z,100336.48
2018-11-29T22:33:56.586Z,100343.47
2018-11-29T22:36:26.296Z,100340.37
2018-11-29T22:38:56.137Z,100330.64
2018-11-29T22:41:25.703Z,100332.41
2018-11-29T22:43:55.390Z,100332.41
2018-11-29T22:46:25.200Z,100331.71
2018-11-29T22:48:54.890Z,100323.40
2018-11-29T22:51:24.681Z,100321.19
2018-11-29T22:53:54.935Z,100320.56
2018-11-29T22:56:24.707Z,100314.78
2018-11-29T22:58:54.344Z,100314.40
2018-11-29T23:01:28.974Z,100309.13
2018-11-29T23:03:58.759Z,100315.25
2018-11-29T23:06:28.522Z,100313.19
2018-11-29T23:08:58.167Z,100305.20
2018-11-29T23:11:28.361Z,100307.73
2018-11-29T23:13:58.300Z,100316.96
2018-11-29T23:16:27.938Z,100308.46
2018-11-29T23:18:57.713Z,100301.70
2018-11-29T23:21:28.864Z,100299.52
2018-11-29T23:23:58.523Z,100291.48
2018-11-29T23:26:28.334Z,100293.12
2018-11-29T23:28:58.464Z,100293.89
2018-11-29T23:31:28.208Z,100295.34
2018-11-29T23:33:57.811Z,100296.23
2018-11-29T23:36:27.474Z,100287.80
2018-11-29T23:38:57.532Z,100277.91
2018-11-29T23:41:27.342Z,100265.07
2018-11-29T23:43:57.051Z,100275.31
2018-11-29T23:46:26.644Z,100272.43
2018-11-29T23:48:56.232Z,100263.55
2018-11-29T23:51:25.966Z,100271.14
2018-11-29T23:53:55.672Z,100272.19
2018-11-29T23:56:25.275Z,100275.53
2018-11-29T23:58:54.901Z,100269.53
